Time;durP1;ratioP1;P1;durP2;ratioP2;P2;SDS_P1;SDS_P2;PMS_P1;PMS_P2;Temp;Humidity;BMP_temperature;BMP_pressure;BME280_temperature;BME280_humidity;BME280_pressure;Samples;Min_cycle;Max_cycle;Signal;HPM_P1;HPM_P2
2022/02/05 00:01:21;;;;;;;0.40;0.30;;;;;;;3.72;100.00;100279.13;5053008;28;20453;-69
2022/02/05 00:03:55;;;;;;;0.40;0.30;;;;;;;3.72;100.00;100277.25;5053213;28;20457;-69
2022/02/05 00:06:28;;;;;;;0.40;0.30;;;;;;;3.75;100.00;100276.72;5052939;28;20475;-69
2022/02/05 00:09:03;;;;;;;0.40;0.30;;;;;;;3.76;100.00;100286.38;5052986;28;20448;-70
2022/02/05 00:14:42;;;;;;;0.40;0.30;;;;;;;3.72;100.00;100293.34;5052896;28;20445;-69
2022/02/05 00:39:54;;;;;;;0.40;0.20;;;;;;;3.85;100.00;100339.44;5056430;28;20825;-70
2022/02/05 00:42:38;;;;;;;0.40;0.30;;;;;;;3.91;100.00;100354.47;5056487;28;20465;-70
2022/02/05 00:45:08;;;;;;;0.40;0.23;;;;;;;3.88;100.00;100352.31;5056363;28;20474;-70
2022/02/05 00:47:37;;;;;;;0.40;0.20;;;;;;;3.92;100.00;100356.88;5056330;28;20446;-70
2022/02/05 00:50:06;;;;;;;0.40;0.20;;;;;;;3.98;100.00;100361.19;5056260;28;20442;-69
2022/02/05 00:52:33;;;;;;;0.40;0.23;;;;;;;4.04;100.00;100370.06;5056255;28;20438;-69
2022/02/05 00:55:07;;;;;;;0.40;0.20;;;;;;;4.08;100.00;100373.84;5056219;28;20540;-70
2022/02/05 00:57:46;;;;;;;0.40;0.30;;;;;;;4.09;100.00;100367.41;5056197;28;20488;-70
2022/02/05 01:00:18;;;;;;;0.40;0.30;;;;;;;4.10;100.00;100376.22;5056058;28;20454;-70
2022/02/05 01:02:44;;;;;;;0.40;0.30;;;;;;;4.09;100.00;100377.31;5055886;28;20422;-70
2022/02/05 01:05:11;;;;;;;0.40;0.30;;;;;;;4.10;100.00;100389.63;5055840;28;21022;-71
2022/02/05 01:07:39;;;;;;;0.40;0.20;;;;;;;4.10;100.00;100393.13;5055710;28;20951;-71
2022/02/05 01:10:07;;;;;;;0.40;0.20;;;;;;;4.11;100.00;100408.13;5055895;28;20473;-71
2022/02/05 01:12:36;;;;;;;0.40;0.30;;;;;;;4.12;100.00;100399.03;5055968;28;20488;-70
2022/02/05 01:15:04;;;;;;;0.40;0.20;;;;;;;4.13;100.00;100395.28;5055836;28;20450;-71
2022/02/05 01:17:35;;;;;;;0.40;0.30;;;;;;;4.18;100.00;100397.97;5055855;28;20508;-71
2022/02/05 01:22:44;;;;;;;0.40;0.20;;;;;;;4.21;100.00;100410.88;5055813;28;20418;-71
2022/02/05 01:25:15;;;;;;;0.40;0.30;;;;;;;4.20;100.00;100419.94;5055301;28;21022;-71
2022/02/05 01:27:47;;;;;;;0.40;0.30;;;;;;;4.24;100.00;100412.19;5055950;28;20522;-71
2022/02/05 01:30:20;;;;;;;0.40;0.30;;;;;;;4.28;100.00;100419.44;5055696;28;20492;-71
2022/02/05 01:32:56;;;;;;;0.40;0.20;;;;;;;4.29;100.00;100425.63;5055568;28;20496;-71
2022/02/05 01:35:31;;;;;;;0.40;0.20;;;;;;;4.29;99.85;100426.44;5055596;28;20453;-71
2022/02/05 01:49:13;;;;;;;0.40;0.20;;;;;;;4.46;99.09;100425.41;5055080;28;20401;-71
2022/02/05 01:52:06;;;;;;;0.40;0.30;;;;;;;4.45;99.09;100429.97;5054983;28;20466;-70
2022/02/05 01:54:42;;;;;;;0.40;0.20;;;;;;;4.48;98.91;100444.72;5054905;28;20446;-70
2022/02/05 01:57:15;;;;;;;0.40;0.20;;;;;;;4.51;98.53;100450.34;5055224;28;20430;-71
2022/02/05 02:00:04;;;;;;;0.40;0.30;;;;;;;4.52;98.07;100443.13;5055315;28;20442;-71
2022/02/05 02:05:12;;;;;;;0.40;0.30;;;;;;;4.51;96.72;100450.34;5032217;28;20481;-71
2022/02/05 02:16:30;;;;;;;0.40;0.30;;;;;;;4.37;97.18;100451.13;5026557;28;20441;-70
2022/02/05 02:19:05;;;;;;;0.40;0.30;;;;;;;4.36;97.52;100457.56;5054526;28;20435;-70
2022/02/05 02:21:39;;;;;;;0.40;0.30;;;;;;;4.33;97.75;100463.44;5054815;28;20473;-70
2022/02/05 02:24:12;;;;;;;0.40;0.30;;;;;;;4.29;97.44;100466.66;5054647;28;20438;-71
2022/02/05 02:26:50;;;;;;;0.40;0.20;;;;;;;4.31;97.68;100466.38;5054587;28;21062;-71
2022/02/05 02:29:28;;;;;;;0.40;0.20;;;;;;;4.29;97.68;100472.03;5054556;28;20462;-71
2022/02/05 02:31:56;;;;;;;0.40;0.30;;;;;;;4.30;98.31;100491.59;5054457;28;20476;-70
2022/02/05 02:34:28;;;;;;;0.40;0.30;;;;;;;4.28;97.72;100489.16;5054434;28;20489;-71
2022/02/05 02:36:59;;;;;;;0.40;0.30;;;;;;;4.37;97.16;100500.19;5053863;28;20859;-72
2022/02/05 02:39:30;;;;;;;0.40;0.23;;;;;;;4.43;97.92;100509.06;5054258;28;20441;-73
2022/02/05 02:42:01;;;;;;;0.40;0.30;;;;;;;4.48;96.61;100503.72;5054182;28;20466;-75
2022/02/05 02:44:27;;;;;;;0.40;0.20;;;;;;;4.51;96.84;100503.19;5053958;28;20904;-74
2022/02/05 02:46:54;;;;;;;0.40;0.30;;;;;;;4.49;96.72;100511.50;5054051;28;20490;-72
2022/02/05 02:49:35;;;;;;;0.40;0.30;;;;;;;4.53;95.96;100511.78;5054077;28;20446;-71
2022/02/05 02:57:31;;;;;;;0.40;0.30;;;;;;;4.58;95.88;100516.38;5053545;28;20886;-71
2022/02/05 03:00:01;;;;;;;0.40;0.30;;;;;;;4.60;95.40;100514.22;5053314;28;20446;-70
2022/02/05 03:02:27;;;;;;;0.40;0.20;;;;;;;4.64;95.54;100523.34;5053822;28;20499;-71
2022/02/05 03:04:55;;;;;;;0.40;0.20;;;;;;;4.71;94.90;100515.88;5054019;28;20430;-71
2022/02/05 03:07:24;;;;;;;0.40;0.27;;;;;;;4.71;94.30;100530.09;5053393;28;21025;-71
2022/02/05 03:09:51;;;;;;;0.40;0.30;;;;;;;4.73;93.12;100527.13;5053373;28;20446;-71
2022/02/05 03:12:19;;;;;;;0.40;0.30;;;;;;;4.79;91.09;100523.41;5053684;28;20437;-71
2022/02/05 03:14:45;;;;;;;0.40;0.30;;;;;;;4.79;91.56;100520.75;5053659;28;20526;-71
2022/02/05 03:17:16;;;;;;;0.40;0.30;;;;;;;4.80;91.87;100523.16;5053597;28;20434;-71
2022/02/05 03:19:46;;;;;;;0.40;0.20;;;;;;;4.80;90.57;100533.88;5053598;28;20441;-72
2022/02/05 03:22:13;;;;;;;0.40;0.30;;;;;;;4.83;91.04;100531.75;5053514;28;20450;-71
2022/02/05 03:24:41;;;;;;;0.40;0.30;;;;;;;4.83;91.39;100534.44;5053519;28;20443;-72
2022/02/05 03:27:08;;;;;;;0.40;0.20;;;;;;;4.84;91.95;100536.03;5053355;28;20560;-71
2022/02/05 03:29:35;;;;;;;0.40;0.30;;;;;;;4.88;92.06;100545.19;5053397;28;20449;-71
2022/02/05 03:32:02;;;;;;;0.40;0.20;;;;;;;4.89;92.51;100536.06;5052976;28;20462;-71
2022/02/05 03:34:28;;;;;;;0.40;0.30;;;;;;;4.89;93.00;100541.41;5053040;28;20940;-72
2022/02/05 03:36:55;;;;;;;0.40;0.30;;;;;;;4.86;93.07;100542.75;5053199;28;20446;-72
2022/02/05 03:39:22;;;;;;;0.40;0.30;;;;;;;4.82;94.09;100547.03;5053244;28;20450;-72
2022/02/05 03:41:50;;;;;;;0.40;0.20;;;;;;;4.79;94.68;100543.00;5053207;28;20462;-71
2022/02/05 03:44:16;;;;;;;0.40;0.30;;;;;;;4.73;94.90;100554.78;5053211;28;20449;-71
2022/02/05 03:46:43;;;;;;;0.40;0.20;;;;;;;4.66;95.23;100556.91;5053128;28;20478;-71
2022/02/05 03:49:11;;;;;;;0.40;0.30;;;;;;;4.62;95.81;100563.88;5053166;28;20446;-71
2022/02/05 03:51:38;;;;;;;0.40;0.30;;;;;;;4.55;97.08;100542.63;5052803;28;21030;-72
2022/02/05 03:54:04;;;;;;;0.40;0.30;;;;;;;4.61;97.41;100551.53;5053378;28;20439;-72
2022/02/05 03:56:31;;;;;;;0.40;0.30;;;;;;;4.61;97.20;100550.72;5053184;28;20441;-72
2022/02/05 03:58:58;;;;;;;0.40;0.30;;;;;;;4.55;97.51;100555.25;5053127;28;20469;-72
2022/02/05 04:01:25;;;;;;;0.40;0.30;;;;;;;4.57;97.79;100555.81;5052992;28;20458;-73
2022/02/05 04:03:51;;;;;;;0.40;0.30;;;;;;;4.61;97.68;100556.09;5053037;28;20442;-72
2022/02/05 04:06:18;;;;;;;0.40;0.30;;;;;;;4.55;98.09;100557.91;5052975;28;20485;-72
2022/02/05 04:08:45;;;;;;;0.40;0.23;;;;;;;4.53;97.98;100562.75;5052991;28;20457;-72
2022/02/05 04:11:27;;;;;;;0.40;0.20;;;;;;;4.58;97.73;100562.78;5056599;28;20477;-72
2022/02/05 04:16:39;;;;;;;0.40;0.20;;;;;;;4.60;97.19;100576.72;5056862;28;20414;-72
2022/02/05 04:19:05;;;;;;;0.40;0.20;;;;;;;4.63;97.19;100570.84;5056885;28;20452;-73
2022/02/05 04:21:33;;;;;;;0.40;0.30;;;;;;;4.64;97.52;100568.97;5056826;28;20466;-72
2022/02/05 04:24:01;;;;;;;0.40;0.30;;;;;;;4.66;96.67;100580.25;5056897;28;20445;-73
2022/02/05 04:26:29;;;;;;;0.40;0.30;;;;;;;4.63;95.58;100565.47;5056678;28;20578;-72
2022/02/05 04:28:56;;;;;;;0.40;0.30;;;;;;;4.65;96.07;100582.13;5056721;28;20446;-73
2022/02/05 04:31:23;;;;;;;0.40;0.20;;;;;;;4.72;95.38;100587.25;5056329;28;20477;-73
2022/02/05 04:33:51;;;;;;;0.40;0.30;;;;;;;4.73;96.06;100592.34;5056653;28;20446;-73
2022/02/05 04:36:19;;;;;;;0.40;0.30;;;;;;;4.76;95.43;100593.69;5056510;28;20454;-74
2022/02/05 04:38:48;;;;;;;0.40;0.20;;;;;;;4.77;95.62;100598.78;5056537;28;20445;-74
2022/02/05 04:41:20;;;;;;;0.40;0.20;;;;;;;4.85;94.61;100599.38;5056427;28;20458;-74
2022/02/05 04:44:08;;;;;;;0.40;0.30;;;;;;;4.83;94.92;100602.31;5056490;28;20434;-74
2022/02/05 04:49:55;;;;;;;0.40;0.30;;;;;;;4.94;94.30;100613.91;5052505;28;20816;-74
2022/02/05 04:55:42;;;;;;;0.40;0.20;;;;;;;4.94;93.55;100612.00;5056053;28;20905;-74
2022/02/05 04:58:34;;;;;;;0.40;0.30;;;;;;;4.94;93.48;100619.25;5056841;28;20997;-74
2022/02/05 05:01:12;;;;;;;0.40;0.20;;;;;;;4.99;93.49;100616.59;5056117;28;20556;-73
2022/02/05 05:03:53;;;;;;;0.40;0.30;;;;;;;4.99;93.06;100617.41;5056224;28;20438;-74
2022/02/05 05:06:44;;;;;;;0.50;0.50;;;;;;;5.04;92.29;100619.28;5056014;28;20478;-74
2022/02/05 05:09:17;;;;;;;0.40;0.30;;;;;;;5.03;92.09;100618.50;5056033;28;20863;-73
2022/02/05 05:11:51;;;;;;;0.40;0.30;;;;;;;5.08;91.80;100625.75;5055938;28;20466;-74
2022/02/05 05:19:48;;;;;;;0.40;0.20;;;;;;;5.07;90.55;100624.16;5055644;28;20452;-74
2022/02/05 05:22:16;;;;;;;0.40;0.30;;;;;;;5.07;89.96;100624.94;5054900;28;20453;-74
2022/02/05 05:24:43;;;;;;;0.40;0.20;;;;;;;5.05;90.38;100619.06;5055767;28;20442;-73
2022/02/05 05:27:09;;;;;;;0.40;0.30;;;;;;;5.01;90.72;100622.53;5055548;28;20574;-72
2022/02/05 05:29:36;;;;;;;0.40;0.20;;;;;;;5.00;90.54;100634.31;5055807;28;20449;-73
2022/02/05 05:32:03;;;;;;;0.40;0.30;;;;;;;4.97;90.68;100634.84;5055738;28;20470;-73
2022/02/05 05:34:29;;;;;;;0.40;0.30;;;;;;;4.93;90.82;100641.81;5055724;28;20449;-73
2022/02/05 05:36:56;;;;;;;0.40;0.20;;;;;;;4.87;90.69;100634.78;5055287;28;20461;-73
2022/02/05 05:39:24;;;;;;;0.40;0.30;;;;;;;4.86;90.50;100651.97;5055504;28;20452;-73
2022/02/05 05:41:51;;;;;;;0.40;0.20;;;;;;;4.82;91.01;100640.94;5055817;28;20458;-73
2022/02/05 05:47:15;;;;;;;0.40;0.20;;;;;;;4.77;90.95;100639.03;5032750;28;20593;-73
2022/02/05 05:49:57;;;;;;;0.40;0.23;;;;;;;4.80;91.11;100641.22;5055458;28;20430;-73
2022/02/05 05:52:24;;;;;;;0.40;0.30;;;;;;;4.79;91.07;100644.97;5055329;28;20445;-73
2022/02/05 05:54:52;;;;;;;0.40;0.30;;;;;;;4.77;90.71;100646.28;5055064;28;20430;-73
2022/02/05 05:57:19;;;;;;;0.40;0.20;;;;;;;4.71;91.25;100645.47;5055194;28;20446;-73
2022/02/05 05:59:45;;;;;;;0.40;0.30;;;;;;;4.71;91.11;100641.97;5054820;28;20496;-72
2022/02/05 06:02:12;;;;;;;0.40;0.20;;;;;;;4.73;91.17;100651.34;5054991;28;20442;-72
2022/02/05 06:04:39;;;;;;;0.40;0.30;;;;;;;4.72;91.13;100646.25;5054967;28;20492;-72
2022/02/05 06:07:05;;;;;;;0.40;0.30;;;;;;;4.68;90.89;100648.66;5054876;28;20489;-73
2022/02/05 06:09:33;;;;;;;0.40;0.27;;;;;;;4.68;90.68;100658.59;5054885;28;20441;-73
2022/02/05 06:12:00;;;;;;;0.40;0.30;;;;;;;4.70;90.36;100664.50;5054732;28;20561;-73
2022/02/05 06:14:28;;;;;;;0.40;0.30;;;;;;;4.72;89.94;100671.22;5054499;28;20936;-73
2022/02/05 06:17:00;;;;;;;0.40;0.20;;;;;;;4.75;90.16;100669.91;5054712;28;20438;-72
2022/02/05 06:19:27;;;;;;;1.47;1.37;;;;;;;4.78;90.40;100670.19;5054677;28;20431;-73
2022/02/05 06:21:53;;;;;;;0.40;0.20;;;;;;;4.84;90.48;100667.53;5054518;28;20470;-73
2022/02/05 06:24:20;;;;;;;0.40;0.30;;;;;;;4.86;90.39;100684.16;5054591;28;20442;-73
2022/02/05 06:26:46;;;;;;;0.40;0.30;;;;;;;4.88;89.85;100676.69;5054512;28;20493;-73
2022/02/05 06:29:14;;;;;;;0.40;0.30;;;;;;;4.89;89.92;100676.41;5054478;28;20442;-74
2022/02/05 06:31:40;;;;;;;0.40;0.30;;;;;;;4.86;92.42;100693.03;5054357;28;20466;-73
2022/02/05 06:34:06;;;;;;;0.40;0.20;;;;;;;4.69;95.26;100698.59;5054028;28;20500;-73
2022/02/05 06:36:33;;;;;;;0.40;0.20;;;;;;;4.57;98.21;100694.47;5054057;28;20507;-69
2022/02/05 06:38:59;;;;;;;0.40;0.30;;;;;;;4.49;97.59;100695.75;5054422;28;20453;-71
2022/02/05 06:41:26;;;;;;;0.40;0.20;;;;;;;4.45;98.08;100710.75;5054009;28;20477;-72
2022/02/05 06:43:52;;;;;;;0.40;0.30;;;;;;;4.41;98.94;100721.16;5053983;28;20443;-71
2022/02/05 06:46:20;;;;;;;0.40;0.30;;;;;;;4.39;100.00;100734.03;5054206;28;20507;-71
2022/02/05 06:48:46;;;;;;;0.40;0.30;;;;;;;4.29;100.00;100740.13;5054165;28;20453;-70
2022/02/05 06:51:13;;;;;;;0.40;0.20;;;;;;;4.25;100.00;100757.78;5054131;28;20492;-70
2022/02/05 06:53:39;;;;;;;0.40;0.30;;;;;;;4.22;100.00;100752.13;5054224;28;20448;-70
2022/02/05 06:56:06;;;;;;;0.40;0.30;;;;;;;3.91;100.00;100757.19;5053945;28;20537;-69
2022/02/05 06:58:32;;;;;;;0.40;0.30;;;;;;;3.73;100.00;100750.28;5053944;28;20445;-70
2022/02/05 07:00:59;;;;;;;0.40;0.20;;;;;;;3.39;100.00;100756.84;5053817;28;20473;-71
2022/02/05 07:03:27;;;;;;;0.40;0.30;;;;;;;3.19;100.00;100739.47;5053522;28;20453;-71
2022/02/05 07:05:53;;;;;;;0.40;0.30;;;;;;;3.17;100.00;100744.25;5053815;28;20442;-72
2022/02/05 07:08:20;;;;;;;0.40;0.30;;;;;;;3.11;100.00;100757.84;5053666;28;20486;-73
2022/02/05 07:10:47;;;;;;;0.40;0.20;;;;;;;3.07;100.00;100759.38;5053650;28;20466;-72
2022/02/05 07:13:16;;;;;;;0.40;0.30;;;;;;;3.05;100.00;100756.94;5053652;28;20501;-72
2022/02/05 07:15:49;;;;;;;0.40;0.20;;;;;;;3.01;100.00;100770.03;5053614;28;20454;-72
2022/02/05 07:18:24;;;;;;;0.40;0.30;;;;;;;2.98;100.00;100772.38;5053639;28;20422;-73
2022/02/05 07:20:56;;;;;;;0.40;0.30;;;;;;;2.96;100.00;100782.50;5053544;28;20469;-73
2022/02/05 07:31:37;;;;;;;0.40;0.30;;;;;;;2.94;100.00;100801.47;5053416;28;20457;-72
2022/02/05 07:34:04;;;;;;;0.40;0.30;;;;;;;2.99;100.00;100806.09;5052985;28;20504;-73
2022/02/05 07:36:32;;;;;;;0.40;0.30;;;;;;;2.97;100.00;100810.88;5052971;28;20951;-72
2022/02/05 07:38:58;;;;;;;0.40;0.30;;;;;;;2.98;100.00;100812.50;5052984;28;20438;-73
2022/02/05 07:41:25;;;;;;;0.40;0.30;;;;;;;2.99;100.00;100811.44;5053226;28;20458;-73
2022/02/05 07:43:52;;;;;;;0.40;0.30;;;;;;;2.99;100.00;100814.13;5052858;28;20449;-72
2022/02/05 07:46:18;;;;;;;0.40;0.30;;;;;;;3.03;100.00;100817.94;5052136;28;20821;-71
2022/02/05 07:48:45;;;;;;;0.40;0.20;;;;;;;3.09;100.00;100824.16;5053073;28;20495;-72
2022/02/05 07:51:12;;;;;;;0.40;0.30;;;;;;;3.08;100.00;100825.22;5053043;28;20466;-71
2022/02/05 07:53:41;;;;;;;0.40;0.20;;;;;;;3.03;100.00;100823.28;5053120;28;20442;-71
2022/02/05 07:56:08;;;;;;;0.40;0.30;;;;;;;3.06;100.00;100824.66;5052790;28;20963;-71
2022/02/05 07:58:35;;;;;;;0.40;0.30;;;;;;;2.99;100.00;100828.31;5053040;28;20434;-72
2022/02/05 08:01:01;;;;;;;0.40;0.30;;;;;;;2.95;100.00;100826.34;5052716;28;20979;-72
2022/02/05 08:03:28;;;;;;;0.40;0.30;;;;;;;3.04;100.00;100839.06;5053044;28;20447;-74
2022/02/05 08:05:54;;;;;;;0.40;0.30;;;;;;;3.09;100.00;100841.00;5052720;28;20940;-74
2022/02/05 08:08:25;;;;;;;0.40;0.30;;;;;;;3.10;100.00;100840.00;5052920;28;20477;-69
2022/02/05 08:10:56;;;;;;;0.40;0.30;;;;;;;3.06;100.00;100833.50;5052974;28;20835;-72
2022/02/05 08:13:23;;;;;;;0.40;0.20;;;;;;;3.02;100.00;100833.16;5053006;28;20462;-71
2022/02/05 08:15:53;;;;;;;0.40;0.27;;;;;;;3.06;100.00;100838.84;5052799;28;20454;-72
2022/02/05 08:18:20;;;;;;;0.40;0.20;;;;;;;3.06;100.00;100840.72;5052632;28;20564;-72
2022/02/05 08:20:46;;;;;;;0.40;0.30;;;;;;;3.12;100.00;100840.53;5052830;28;20472;-72
2022/02/05 08:23:13;;;;;;;0.40;0.20;;;;;;;3.09;100.00;100846.38;5052796;28;20445;-72
2022/02/05 08:25:39;;;;;;;0.40;0.30;;;;;;;3.10;100.00;100856.03;5052780;28;20449;-72
2022/02/05 08:28:08;;;;;;;0.40;0.30;;;;;;;3.17;100.00;100858.53;5052814;28;20486;-73
2022/02/05 08:30:34;;;;;;;0.40;0.20;;;;;;;3.28;100.00;100860.31;5052644;28;20506;-73
2022/02/05 08:33:02;;;;;;;0.40;0.23;;;;;;;3.39;100.00;100861.25;5052733;28;20442;-73
2022/02/05 08:35:29;;;;;;;0.40;0.20;;;;;;;3.50;100.00;100868.41;5052401;28;20504;-72
2022/02/05 08:37:57;;;;;;;0.40;0.30;;;;;;;3.61;100.00;100877.38;5052390;28;20432;-72
2022/02/05 08:40:24;;;;;;;0.40;0.20;;;;;;;3.70;100.00;100867.84;5052675;28;20524;-73
2022/02/05 08:42:50;;;;;;;0.40;0.30;;;;;;;3.75;100.00;100875.94;5052786;28;20496;-73
2022/02/05 08:45:18;;;;;;;0.40;0.30;;;;;;;3.80;100.00;100892.88;5052685;28;20853;-72
2022/02/05 08:47:45;;;;;;;0.40;0.30;;;;;;;3.88;100.00;100883.63;5052670;28;20569;-72
2022/02/05 08:50:11;;;;;;;0.40;0.30;;;;;;;3.92;100.00;100889.28;5052549;28;20462;-72
2022/02/05 08:52:40;;;;;;;0.40;0.20;;;;;;;3.91;100.00;100885.00;5052587;28;20449;-72
2022/02/05 08:55:08;;;;;;;0.40;0.30;;;;;;;3.94;100.00;100889.84;5052535;28;20928;-72
2022/02/05 08:57:35;;;;;;;0.40;0.30;;;;;;;3.92;100.00;100887.41;5055040;28;20457;-72
2022/02/05 09:00:09;;;;;;;0.40;0.23;;;;;;;3.99;100.00;100897.97;5056101;28;20446;-72
2022/02/05 09:02:42;;;;;;;0.40;0.20;;;;;;;4.00;100.00;100902.25;5056183;28;20458;-72
2022/02/05 09:05:17;;;;;;;0.40;0.30;;;;;;;4.01;100.00;100911.91;5056389;28;20430;-72
2022/02/05 09:07:44;;;;;;;0.40;0.20;;;;;;;4.05;100.00;100919.19;5055684;28;20851;-72
2022/02/05 09:10:25;;;;;;;0.40;0.30;;;;;;;4.01;100.00;100910.03;5055953;28;20504;-73
2022/02/05 09:13:12;;;;;;;0.40;0.30;;;;;;;4.12;100.00;100927.06;5056027;28;20441;-72
2022/02/05 09:15:39;;;;;;;0.40;0.30;;;;;;;4.20;100.00;100920.44;5055894;28;20476;-72
2022/02/05 09:18:07;;;;;;;0.40;0.20;;;;;;;4.23;100.00;100928.00;5055853;28;20442;-72
2022/02/05 09:20:33;;;;;;;0.40;0.30;;;;;;;4.23;100.00;100936.03;5055730;28;20481;-72
2022/02/05 09:23:01;;;;;;;0.40;0.23;;;;;;;4.26;100.00;100936.34;5055717;28;20442;-73
2022/02/05 09:25:29;;;;;;;0.40;0.30;;;;;;;4.31;100.00;100938.28;5055683;28;20475;-73
2022/02/05 09:27:55;;;;;;;0.40;0.30;;;;;;;4.37;100.00;100937.28;5055855;28;20478;-73
2022/02/05 09:30:29;;;;;;;0.40;0.30;;;;;;;4.42;100.00;100947.25;5055807;28;20458;-73
2022/02/05 09:32:56;;;;;;;0.40;0.20;;;;;;;4.54;100.00;100950.59;5055290;28;20904;-73
2022/02/05 09:35:23;;;;;;;0.40;0.30;;;;;;;4.59;100.00;100952.53;5055368;28;20438;-73
2022/02/05 09:37:50;;;;;;;0.40;0.20;;;;;;;4.67;99.43;100950.22;5055231;28;20930;-73
2022/02/05 09:40:17;;;;;;;0.40;0.23;;;;;;;4.83;99.96;100967.28;5055378;28;20665;-73
2022/02/05 09:42:45;;;;;;;0.40;0.30;;;;;;;4.87;98.29;100967.56;5055425;28;20437;-72
2022/02/05 09:45:12;;;;;;;0.40;0.30;;;;;;;4.89;98.35;100968.13;5055349;28;20909;-72
2022/02/05 09:47:38;;;;;;;0.40;0.30;;;;;;;4.88;99.33;100979.94;5055010;28;20517;-73
2022/02/05 09:50:06;;;;;;;0.40;0.23;;;;;;;4.87;99.88;100987.19;5055209;28;20442;-73
2022/02/05 09:52:34;;;;;;;0.40;0.27;;;;;;;4.84;99.86;100978.81;5055230;28;20448;-73
2022/02/05 09:55:01;;;;;;;0.40;0.30;;;;;;;4.77;98.56;100990.56;5055152;28;20446;-73
2022/02/05 09:57:27;;;;;;;0.40;0.20;;;;;;;4.77;97.74;100990.56;5055078;28;20446;-73
2022/02/05 09:59:57;;;;;;;0.40;0.30;;;;;;;4.74;98.57;100998.31;5054721;28;20446;-73
2022/02/05 10:02:27;;;;;;;0.40;0.20;;;;;;;4.73;98.31;100997.47;5055081;28;20431;-73
2022/02/05 10:04:57;;;;;;;0.40;0.30;;;;;;;4.73;97.94;101005.53;5055206;28;20442;-73
2022/02/05 10:07:25;;;;;;;0.40;0.27;;;;;;;4.74;97.33;101012.53;5054244;28;20940;-73
2022/02/05 10:09:57;;;;;;;0.40;0.20;;;;;;;4.75;96.53;101003.44;5054554;28;20962;-74
2022/02/05 10:12:24;;;;;;;0.40;0.20;;;;;;;4.78;97.02;101005.63;5054871;28;20443;-73
2022/02/05 10:14:54;;;;;;;0.40;0.20;;;;;;;4.88;97.27;101002.22;5054846;28;20442;-73
2022/02/05 10:17:21;;;;;;;0.40;0.27;;;;;;;4.94;95.65;100998.53;5054738;28;20426;-73
2022/02/05 10:19:49;;;;;;;0.40;0.30;;;;;;;5.06;95.55;101003.75;5054661;28;20453;-73
2022/02/05 10:22:17;;;;;;;0.40;0.20;;;;;;;5.10;95.44;100999.50;5054654;28;20517;-73
2022/02/05 10:24:50;;;;;;;0.40;0.30;;;;;;;5.17;94.48;101005.44;5054622;28;20442;-73
2022/02/05 10:27:28;;;;;;;0.40;0.20;;;;;;;5.24;95.01;101010.63;5054521;28;20446;-73
2022/02/05 10:30:07;;;;;;;0.40;0.30;;;;;;;5.34;93.64;101017.97;5054454;28;20446;-73
2022/02/05 10:32:34;;;;;;;0.40;0.30;;;;;;;5.30;93.96;101015.78;5054140;28;20951;-73
2022/02/05 10:35:05;;;;;;;0.40;0.30;;;;;;;5.36;93.72;101019.34;5054719;28;20458;-73
2022/02/05 10:37:42;;;;;;;0.40;0.20;;;;;;;5.48;95.08;101016.47;5054321;28;20438;-73
2022/02/05 10:40:12;;;;;;;0.40;0.30;;;;;;;5.54;93.76;101016.25;5054224;28;20466;-72
2022/02/05 10:43:02;;;;;;;0.40;0.30;;;;;;;5.60;93.36;101011.72;5054500;28;20446;-73
2022/02/05 10:45:32;;;;;;;0.40;0.20;;;;;;;5.67;92.99;101015.03;5054291;28;20423;-71
2022/02/05 10:48:00;;;;;;;0.40;0.30;;;;;;;5.72;91.08;101016.94;5054099;28;20569;-73
2022/02/05 10:50:29;;;;;;;0.40;0.20;;;;;;;5.79;91.04;101018.31;5054182;28;20463;-73
2022/02/05 10:53:00;;;;;;;0.40;0.30;;;;;;;5.84;90.12;101017.53;5054024;28;20471;-73
2022/02/05 10:55:43;;;;;;;0.40;0.30;;;;;;;5.93;90.10;101012.50;5054264;28;20430;-74
2022/02/05 10:58:19;;;;;;;0.40;0.30;;;;;;;5.89;88.70;101014.91;5053989;28;20427;-73
2022/02/05 11:06:13;;;;;;;0.40;0.20;;;;;;;5.83;88.77;101027.47;5054066;28;20529;-73
2022/02/05 11:08:40;;;;;;;0.40;0.30;;;;;;;5.88;89.29;101023.22;5053970;28;20486;-73
2022/02/05 11:16:53;;;;;;;0.40;0.23;;;;;;;5.90;88.34;101015.72;5053661;28;20434;-72
2022/02/05 11:19:20;;;;;;;0.40;0.30;;;;;;;5.81;87.36;101023.44;5052915;28;20517;-73
2022/02/05 11:21:47;;;;;;;0.40;0.20;;;;;;;5.74;87.45;101020.97;5053551;28;20462;-72
2022/02/05 11:24:14;;;;;;;0.40;0.23;;;;;;;5.70;88.59;101019.84;5053657;28;20462;-73
2022/02/05 11:26:41;;;;;;;0.40;0.20;;;;;;;5.79;89.99;101021.00;5053481;28;20454;-73
2022/02/05 11:29:27;;;;;;;0.40;0.30;;;;;;;5.98;89.68;101021.44;5052794;28;20834;-72
2022/02/05 11:31:55;;;;;;;0.40;0.30;;;;;;;6.19;89.40;101030.41;5053392;28;20458;-70
2022/02/05 11:34:30;;;;;;;0.40;0.30;;;;;;;6.30;87.12;101017.84;5053066;28;20936;-69
2022/02/05 11:37:03;;;;;;;0.40;0.30;;;;;;;6.46;87.49;101019.56;5052969;28;20460;-72
2022/02/05 11:39:44;;;;;;;0.40;0.30;;;;;;;6.69;86.53;101020.97;5053313;28;20437;-72
2022/02/05 11:42:28;;;;;;;0.40;0.20;;;;;;;6.82;84.89;101012.41;5053152;28;20880;-73
2022/02/05 11:44:58;;;;;;;0.40;0.20;;;;;;;6.93;84.64;101009.72;5052983;28;20454;-72
2022/02/05 11:47:29;;;;;;;0.40;0.30;;;;;;;7.19;83.75;101008.69;5053244;28;20445;-74
2022/02/05 11:50:19;;;;;;;0.40;0.30;;;;;;;7.42;81.88;101015.44;5053032;28;20497;-76
2022/02/05 11:52:59;;;;;;;0.40;0.30;;;;;;;7.71;80.44;101010.31;5053122;28;20442;-73
2022/02/05 11:55:34;;;;;;;0.40;0.30;;;;;;;7.89;78.55;101013.53;5053148;28;20446;-71
2022/02/05 11:58:02;;;;;;;0.40;0.30;;;;;;;8.10;78.27;101017.78;5052843;28;20441;-73
2022/02/05 12:00:36;;;;;;;0.40;0.30;;;;;;;8.32;78.66;101021.00;5052996;28;20466;-73
2022/02/05 12:03:17;;;;;;;0.40;0.30;;;;;;;8.43;74.99;101010.97;5052999;28;20440;-74
2022/02/05 12:05:54;;;;;;;0.40;0.30;;;;;;;8.66;74.81;101024.94;5053315;28;20442;-74
2022/02/05 12:08:28;;;;;;;0.40;0.27;;;;;;;8.85;70.04;101017.78;5052960;28;20488;-75
2022/02/05 12:10:57;;;;;;;0.40;0.30;;;;;;;8.70;71.13;101020.59;5052980;28;20532;-74
2022/02/05 12:13:27;;;;;;;0.40;0.20;;;;;;;8.63;72.65;101012.78;5052987;28;20442;-74
2022/02/05 12:16:21;;;;;;;0.40;0.30;;;;;;;8.82;71.04;101043.50;5052589;28;20808;-74
2022/02/05 12:19:16;;;;;;;0.40;0.30;;;;;;;8.47;68.68;101027.44;5052806;28;20495;-76
2022/02/05 12:21:59;;;;;;;0.40;0.30;;;;;;;8.30;71.79;101017.75;5043681;28;20513;-74
2022/02/05 12:24:37;;;;;;;0.40;0.30;;;;;;;8.14;71.77;101007.25;5052857;28;20438;-74
2022/02/05 12:27:32;;;;;;;0.40;0.20;;;;;;;7.92;70.37;101021.88;5052873;28;20434;-73
2022/02/05 12:30:41;;;;;;;0.40;0.30;;;;;;;7.99;69.37;101027.00;5052465;28;20527;-72
2022/02/05 12:33:11;;;;;;;0.40;0.30;;;;;;;7.86;70.40;101012.19;5056417;28;20434;-74
2022/02/05 12:35:50;;;;;;;0.40;0.20;;;;;;;7.86;70.22;101019.47;5056512;28;20983;-74
2022/02/05 12:38:17;;;;;;;0.40;0.30;;;;;;;7.71;70.72;101013.03;5056222;28;20461;-73
2022/02/05 12:40:45;;;;;;;0.93;0.83;;;;;;;7.59;71.08;101025.97;5056450;28;20469;-72
2022/02/05 12:43:13;;;;;;;0.40;0.30;;;;;;;7.52;72.06;101025.41;5056405;28;20449;-73
2022/02/05 12:45:48;;;;;;;0.40;0.30;;;;;;;7.41;72.32;101023.81;5056425;28;20445;-72
2022/02/05 12:48:20;;;;;;;0.40;0.20;;;;;;;7.30;71.11;101023.81;5056356;28;20488;-72
2022/02/05 12:50:48;;;;;;;0.40;0.30;;;;;;;7.33;72.86;101025.13;5056228;28;20473;-73
2022/02/05 12:53:15;;;;;;;0.40;0.30;;;;;;;7.25;71.53;101029.16;5055976;28;20943;-72
2022/02/05 12:55:45;;;;;;;0.40;0.30;;;;;;;7.26;72.61;101020.03;5056225;28;20441;-71
2022/02/05 12:58:14;;;;;;;0.40;0.30;;;;;;;7.42;69.77;101038.88;5056450;28;20537;-74
2022/02/05 13:00:40;;;;;;;0.40;0.20;;;;;;;7.26;70.22;101029.97;5056061;28;20834;-74
2022/02/05 13:03:27;;;;;;;0.40;0.23;;;;;;;7.43;69.94;101024.34;5056120;28;20449;-74
2022/02/05 13:05:53;;;;;;;0.40;0.30;;;;;;;7.46;69.76;101030.00;5055471;28;20450;-74
2022/02/05 13:08:20;;;;;;;0.40;0.30;;;;;;;7.42;70.64;101028.09;5055683;28;20449;-74
2022/02/05 13:10:49;;;;;;;0.40;0.23;;;;;;;7.40;71.03;101024.88;5056181;28;20469;-74
2022/02/05 13:13:15;;;;;;;0.50;0.40;;;;;;;7.29;71.49;101034.84;5055881;28;20541;-75
2022/02/05 13:15:42;;;;;;;0.40;0.20;;;;;;;7.24;72.34;101029.44;5055876;28;20443;-75
2022/02/05 13:18:25;;;;;;;0.40;0.30;;;;;;;7.26;72.08;101028.13;5055487;28;20969;-72
2022/02/05 13:26:23;;;;;;;0.40;0.30;;;;;;;7.11;73.48;101027.25;5046146;28;20480;-74